createdAt,value
2023-03-26T00:01:15.206Z,63.67
2023-03-26T00:03:43.010Z,64.41
2023-03-26T00:06:12.993Z,64.30
2023-03-26T00:08:42.094Z,64.64
2023-03-26T00:11:10.799Z,64.12
2023-03-26T00:13:38.378Z,64.77
2023-03-26T00:16:05.689Z,64.38
2023-03-26T00:18:32.883Z,64.20
2023-03-26T00:21:01.982Z,64.66
2023-03-26T00:23:30.766Z,63.97
2023-03-26T00:25:57.685Z,64.60
2023-03-26T00:28:25.241Z,64.22
2023-03-26T00:31:00.435Z,64.43
2023-03-26T00:33:28.675Z,65.04
2023-03-26T00:35:58.021Z,64.40
2023-03-26T00:38:26.465Z,64.99
2023-03-26T00:40:54.772Z,64.99
2023-03-26T00:43:23.049Z,65.12
2023-03-26T00:45:53.195Z,65.04
2023-03-26T00:48:31.306Z,65.47
2023-03-26T00:51:06.397Z,65.34
2023-03-26T00:53:33.294Z,65.61
2023-03-26T00:56:00.534Z,65.29
2023-03-26T00:58:27.822Z,65.45
2023-03-26T01:00:57.949Z,65.49
2023-03-26T01:03:28.382Z,65.70
2023-03-26T01:06:00.598Z,65.55
2023-03-26T01:08:34.548Z,65.36
2023-03-26T01:11:07.057Z,65.20
2023-03-26T01:13:38.786Z,65.50
2023-03-26T01:16:14.818Z,65.54
2023-03-26T01:18:41.863Z,65.13
2023-03-26T01:21:09.398Z,66.33
2023-03-26T01:23:48.997Z,65.67
2023-03-26T01:26:32.032Z,66.33
2023-03-26T01:29:03.467Z,66.36
2023-03-26T01:31:59.027Z,65.92
2023-03-26T01:34:51.280Z,65.86
2023-03-26T01:37:48.285Z,65.15
2023-03-26T01:40:28.880Z,65.80
2023-03-26T01:43:09.203Z,65.81
2023-03-26T01:45:40.169Z,65.99
2023-03-26T01:48:07.390Z,65.95
2023-03-26T01:50:34.238Z,65.78
2023-03-26T01:53:01.795Z,66.04
2023-03-26T01:55:39.490Z,65.62
2023-03-26T01:58:19.823Z,65.77
2023-03-26T02:01:03.114Z,65.67
2023-03-26T02:03:41.967Z,66.61
2023-03-26T02:06:31.167Z,66.02
2023-03-26T02:09:06.317Z,65.80
2023-03-26T02:11:35.884Z,65.81
2023-03-26T02:14:05.766Z,66.22
2023-03-26T02:16:32.836Z,66.02
2023-03-26T02:18:59.975Z,66.29
2023-03-26T02:21:28.328Z,66.52
2023-03-26T02:23:57.950Z,66.20
2023-03-26T02:26:25.390Z,66.32
2023-03-26T02:29:08.447Z,66.39
2023-03-26T02:31:37.064Z,67.61
2023-03-26T02:34:03.979Z,67.37
2023-03-26T02:36:34.036Z,67.24
2023-03-26T02:39:03.286Z,68.05
2023-03-26T02:41:34.069Z,68.67
2023-03-26T02:44:05.611Z,68.37
2023-03-26T02:46:51.101Z,68.26
2023-03-26T02:49:38.308Z,68.39
2023-03-26T02:52:05.392Z,67.52
2023-03-26T02:54:34.428Z,67.96
2023-03-26T02:57:22.792Z,68.30
2023-03-26T03:00:15.314Z,68.19
2023-03-26T03:02:45.288Z,68.51
2023-03-26T03:05:39.288Z,68.44
2023-03-26T03:08:28.109Z,69.02
2023-03-26T03:11:25.072Z,68.89
2023-03-26T03:13:53.424Z,68.55
2023-03-26T03:16:26.237Z,68.64
2023-03-26T03:18:54.871Z,67.76
2023-03-26T03:21:24.782Z,67.75
2023-03-26T03:23:51.779Z,67.34
2023-03-26T03:26:21.002Z,67.11
2023-03-26T03:28:52.787Z,66.27
2023-03-26T03:31:19.923Z,65.11
2023-03-26T03:33:47.042Z,65.42
2023-03-26T03:36:19.808Z,65.38
2023-03-26T03:38:56.264Z,65.72
2023-03-26T03:41:23.901Z,65.97
2023-03-26T03:43:50.949Z,66.11
2023-03-26T03:46:24.965Z,66.38
2023-03-26T03:48:52.046Z,66.48
2023-03-26T03:51:35.561Z,66.45
2023-03-26T03:54:05.942Z,66.52
2023-03-26T03:56:52.762Z,66.69
2023-03-26T03:59:37.899Z,66.76
2023-03-26T04:02:08.421Z,66.11
2023-03-26T04:04:42.041Z,66.20
2023-03-26T04:07:12.012Z,66.42
2023-03-26T04:10:05.871Z,66.12
2023-03-26T04:12:58.924Z,66.34
2023-03-26T04:15:45.772Z,66.26
2023-03-26T04:18:12.868Z,66.45
2023-03-26T04:20:45.728Z,66.02
2023-03-26T04:23:18.783Z,65.51
2023-03-26T04:25:54.724Z,65.11
2023-03-26T04:28:45.702Z,65.63
2023-03-26T04:31:20.358Z,65.15
2023-03-26T04:33:51.053Z,65.88
2023-03-26T04:36:18.623Z,65.23
2023-03-26T04:38:49.437Z,64.82
2023-03-26T04:41:21.205Z,64.20
2023-03-26T04:43:55.338Z,63.97
2023-03-26T04:46:45.180Z,64.39
2023-03-26T04:49:38.307Z,64.15
2023-03-26T04:52:05.770Z,64.21
2023-03-26T04:54:52.884Z,63.43
2023-03-26T04:57:30.298Z,63.21
2023-03-26T05:00:02.429Z,62.61
2023-03-26T05:02:34.106Z,62.56
2023-03-26T05:05:01.074Z,61.64
2023-03-26T05:07:29.861Z,61.35
2023-03-26T05:09:59.202Z,60.86
2023-03-26T05:12:48.731Z,61.18
2023-03-26T05:15:20.034Z,60.39
2023-03-26T05:18:02.659Z,59.75
2023-03-26T05:20:52.209Z,59.24
2023-03-26T05:23:19.318Z,59.23
2023-03-26T05:26:06.520Z,59.28
2023-03-26T05:28:33.684Z,57.94
2023-03-26T05:31:12.012Z,58.38
2023-03-26T05:33:44.564Z,58.78
2023-03-26T05:36:14.240Z,58.75
2023-03-26T05:38:45.459Z,57.42
2023-03-26T05:41:12.842Z,57.94
2023-03-26T05:43:42.981Z,58.36
2023-03-26T05:46:12.608Z,57.75
2023-03-26T05:48:39.516Z,57.77
2023-03-26T05:51:07.705Z,58.13
2023-03-26T05:53:35.285Z,58.55
2023-03-26T05:56:20.732Z,58.07
2023-03-26T05:59:05.963Z,57.30
2023-03-26T06:01:51.497Z,57.39
2023-03-26T06:04:38.806Z,56.93
2023-03-26T06:07:28.605Z,57.19
2023-03-26T06:10:18.018Z,57.07
2023-03-26T06:12:49.918Z,56.79
2023-03-26T06:15:17.897Z,56.29
2023-03-26T06:18:03.342Z,57.01
2023-03-26T06:20:59.006Z,57.74
2023-03-26T06:23:37.690Z,58.69
2023-03-26T06:26:17.506Z,58.87
2023-03-26T06:29:19.010Z,59.39
2023-03-26T06:31:54.481Z,59.52
2023-03-26T06:34:28.696Z,59.38
2023-03-26T06:36:56.469Z,59.14
2023-03-26T06:39:23.608Z,58.29
2023-03-26T06:42:06.957Z,57.61
2023-03-26T06:44:54.066Z,57.38
2023-03-26T06:47:39.892Z,58.10
2023-03-26T06:50:18.883Z,57.71
2023-03-26T06:53:11.799Z,57.00
2023-03-26T06:56:07.099Z,56.62
2023-03-26T06:59:07.898Z,55.97
2023-03-26T07:01:53.499Z,55.95
2023-03-26T07:04:38.882Z,55.63
2023-03-26T07:07:25.034Z,56.37
2023-03-26T07:10:10.852Z,55.18
2023-03-26T07:12:40.778Z,55.67
2023-03-26T07:15:28.418Z,55.65
2023-03-26T07:18:14.179Z,55.71
2023-03-26T07:20:47.552Z,56.38
2023-03-26T07:23:16.640Z,56.13
2023-03-26T07:25:57.228Z,56.30
2023-03-26T07:29:09.122Z,55.57
2023-03-26T07:32:42.062Z,55.71
2023-03-26T07:36:21.424Z,55.00
2023-03-26T07:39:30.770Z,55.36
2023-03-26T07:42:39.160Z,55.77
2023-03-26T07:45:45.795Z,55.26
2023-03-26T07:48:43.869Z,55.76
2023-03-26T07:51:31.072Z,55.75
2023-03-26T07:54:27.634Z,55.09
2023-03-26T07:57:33.646Z,55.04
2023-03-26T08:00:40.945Z,54.55
2023-03-26T08:03:39.309Z,54.70
2023-03-26T08:06:42.934Z,54.94
2023-03-26T08:09:32.695Z,55.51
2023-03-26T08:12:41.574Z,54.65
2023-03-26T08:15:29.764Z,53.89
2023-03-26T08:18:25.450Z,54.80
2023-03-26T08:20:59.658Z,53.85
2023-03-26T08:23:50.747Z,54.15
2023-03-26T08:26:35.092Z,53.31
2023-03-26T08:29:18.248Z,53.90
2023-03-26T08:31:48.163Z,53.93
2023-03-26T08:34:15.341Z,53.47
2023-03-26T08:36:42.192Z,53.17
2023-03-26T08:39:09.112Z,53.09
2023-03-26T08:42:04.134Z,52.04
2023-03-26T08:44:58.498Z,52.19
2023-03-26T08:48:02.891Z,51.73
2023-03-26T08:50:39.389Z,51.51
2023-03-26T08:53:21.588Z,52.12
2023-03-26T08:56:10.322Z,52.12
2023-03-26T08:59:16.079Z,51.12
2023-03-26T09:02:13.990Z,51.65
2023-03-26T09:04:50.055Z,51.72
2023-03-26T09:07:51.936Z,51.67
2023-03-26T09:10:50.146Z,51.87
2023-03-26T09:13:26.242Z,51.58
2023-03-26T09:16:15.774Z,51.54
2023-03-26T09:19:16.596Z,50.82
2023-03-26T09:22:04.901Z,50.26
2023-03-26T09:24:58.314Z,51.16
2023-03-26T09:27:39.300Z,50.49
2023-03-26T09:30:18.317Z,50.47
2023-03-26T09:33:11.142Z,50.47
2023-03-26T09:36:15.682Z,50.86
2023-03-26T09:39:01.642Z,50.96
2023-03-26T09:42:16.641Z,52.30
2023-03-26T09:44:55.473Z,53.69
2023-03-26T09:47:39.780Z,52.00
2023-03-26T09:50:44.308Z,52.46
2023-03-26T09:53:16.888Z,51.64
2023-03-26T09:55:43.772Z,51.73
2023-03-26T09:58:13.519Z,51.18
2023-03-26T10:00:58.958Z,51.19
2023-03-26T10:03:49.479Z,51.50
2023-03-26T10:06:44.670Z,51.38
2023-03-26T10:09:18.182Z,50.61
2023-03-26T10:12:06.506Z,50.90
2023-03-26T10:15:01.275Z,50.75
2023-03-26T10:17:54.435Z,51.08
2023-03-26T10:20:24.177Z,50.44
2023-03-26T10:23:01.726Z,51.10
2023-03-26T10:25:56.232Z,50.91
2023-03-26T10:28:56.651Z,50.00
2023-03-26T10:32:03.785Z,50.07
2023-03-26T10:34:36.712Z,50.57
2023-03-26T10:37:20.485Z,50.95
2023-03-26T10:40:13.551Z,50.25
2023-03-26T10:43:49.788Z,50.70
2023-03-26T10:46:36.338Z,50.45
2023-03-26T10:49:31.685Z,50.78
2023-03-26T10:52:12.905Z,50.28
2023-03-26T10:55:00.141Z,50.82
2023-03-26T10:57:52.917Z,50.46
2023-03-26T11:00:24.365Z,50.02
2023-03-26T11:03:17.629Z,50.47
2023-03-26T11:06:21.665Z,49.83
2023-03-26T11:09:14.700Z,49.16
2023-03-26T11:12:26.144Z,48.56
2023-03-26T11:15:29.779Z,48.51
2023-03-26T11:18:02.876Z,47.90
2023-03-26T11:20:35.639Z,48.17
2023-03-26T11:23:09.317Z,48.10
2023-03-26T11:25:45.389Z,48.37
2023-03-26T11:28:33.605Z,48.11
2023-03-26T11:31:18.853Z,46.51
2023-03-26T11:33:55.573Z,46.75
2023-03-26T11:36:29.928Z,46.02
2023-03-26T11:39:01.352Z,45.28
2023-03-26T11:41:32.386Z,45.63
2023-03-26T11:44:21.233Z,45.50
2023-03-26T11:46:52.728Z,45.83
2023-03-26T11:49:22.187Z,45.48
2023-03-26T11:51:49.512Z,45.19
2023-03-26T11:54:16.564Z,44.64
2023-03-26T11:57:07.516Z,45.62
2023-03-26T11:59:55.377Z,45.38
2023-03-26T12:02:30.051Z,45.44
2023-03-26T12:05:18.277Z,45.24
2023-03-26T12:07:54.645Z,45.15
2023-03-26T12:10:23.228Z,46.02
2023-03-26T12:12:56.817Z,45.07
2023-03-26T12:15:25.537Z,44.81
2023-03-26T12:17:55.509Z,44.59
2023-03-26T12:20:25.341Z,44.83
2023-03-26T12:22:57.245Z,44.61
2023-03-26T12:25:26.367Z,45.26
2023-03-26T12:28:05.362Z,44.62
2023-03-26T12:30:38.468Z,44.62
2023-03-26T12:33:14.145Z,45.00
2023-03-26T12:35:41.333Z,44.58
2023-03-26T12:38:29.589Z,44.69
2023-03-26T12:44:43.362Z,43.98
2023-03-26T12:44:54.027Z,45.38
2023-03-26T12:47:56.942Z,45.53
2023-03-26T12:50:13.805Z,46.07
2023-03-26T12:52:56.020Z,46.58
2023-03-26T12:55:35.240Z,47.39
2023-03-26T12:58:47.363Z,47.71
2023-03-26T13:01:23.718Z,46.66
2023-03-26T13:04:09.527Z,46.69
2023-03-26T13:07:00.367Z,46.80
2023-03-26T13:09:54.345Z,46.51
2023-03-26T13:12:29.366Z,46.11
2023-03-26T13:15:12.616Z,45.78
2023-03-26T13:18:11.895Z,46.24
2023-03-26T13:20:48.242Z,46.15
2023-03-26T13:23:30.086Z,46.85
2023-03-26T13:26:15.664Z,47.49
2023-03-26T13:28:51.783Z,46.35
2023-03-26T13:31:57.270Z,47.01
2023-03-26T13:34:53.667Z,47.25
2023-03-26T13:37:45.232Z,47.41
2023-03-26T13:40:32.878Z,47.36
2023-03-26T13:43:13.871Z,47.21
2023-03-26T13:46:05.133Z,48.00
2023-03-26T13:49:01.946Z,47.82
2023-03-26T13:51:40.969Z,48.13
2023-03-26T13:54:19.348Z,48.39
2023-03-26T13:56:58.372Z,47.84
2023-03-26T13:59:58.171Z,48.08
2023-03-26T14:02:35.936Z,47.60
2023-03-26T14:05:18.640Z,47.67
2023-03-26T14:08:04.063Z,48.33
2023-03-26T14:10:41.814Z,48.96
2023-03-26T14:13:37.276Z,48.99
2023-03-26T14:16:48.664Z,48.44
2023-03-26T14:19:21.735Z,49.26
2023-03-26T14:22:13.221Z,49.11
2023-03-26T14:24:53.940Z,48.89
2023-03-26T14:27:39.257Z,49.45
2023-03-26T14:30:48.392Z,49.68
2023-03-26T14:33:43.879Z,50.12
2023-03-26T14:36:25.430Z,49.90
2023-03-26T14:39:10.760Z,50.14
2023-03-26T14:41:47.899Z,50.84
2023-03-26T14:44:47.592Z,50.71
2023-03-26T14:47:19.475Z,51.12
2023-03-26T14:50:06.481Z,51.84
2023-03-26T14:53:00.860Z,51.31
2023-03-26T14:55:58.310Z,51.44
2023-03-26T14:59:02.062Z,51.74
2023-03-26T15:02:06.617Z,52.32
2023-03-26T15:04:52.022Z,52.08
2023-03-26T15:07:37.514Z,52.38
2023-03-26T15:10:52.415Z,52.21
2023-03-26T15:13:54.894Z,52.33
2023-03-26T15:17:07.838Z,52.47
2023-03-26T15:20:13.328Z,52.59
2023-03-26T15:23:02.905Z,52.40
2023-03-26T15:25:42.105Z,52.51
2023-03-26T15:28:42.685Z,52.45
2023-03-26T15:31:36.919Z,52.59
2023-03-26T15:34:19.052Z,52.87
2023-03-26T15:37:14.047Z,53.13
2023-03-26T15:40:00.554Z,53.06
2023-03-26T15:42:50.531Z,52.78
2023-03-26T15:45:36.477Z,53.41
2023-03-26T15:48:07.261Z,53.07
2023-03-26T15:51:14.901Z,53.37
2023-03-26T15:54:03.554Z,53.22
2023-03-26T15:57:18.039Z,52.79
2023-03-26T15:59:54.064Z,53.00
2023-03-26T16:02:53.851Z,52.82
2023-03-26T16:05:34.860Z,53.11
2023-03-26T16:08:30.980Z,53.61
2023-03-26T16:11:03.466Z,54.06
2023-03-26T16:14:03.074Z,54.40
2023-03-26T16:16:58.220Z,54.13
2023-03-26T16:19:47.939Z,55.07
2023-03-26T16:22:52.334Z,55.00
2023-03-26T16:25:32.570Z,55.97
2023-03-26T16:28:30.406Z,55.78
2023-03-26T16:31:10.639Z,56.59
2023-03-26T16:33:57.779Z,55.94
2023-03-26T16:36:32.351Z,56.30
2023-03-26T16:38:59.326Z,56.76
2023-03-26T16:41:31.008Z,57.14
2023-03-26T16:44:31.138Z,57.03
2023-03-26T16:47:31.048Z,57.13
2023-03-26T16:50:19.745Z,57.41
2023-03-26T16:53:20.675Z,57.48
2023-03-26T16:56:06.990Z,57.73
2023-03-26T16:59:25.973Z,58.03
2023-03-26T17:02:07.276Z,57.95
2023-03-26T17:04:36.716Z,57.38
2023-03-26T17:07:06.641Z,57.98
2023-03-26T17:10:07.327Z,58.11
2023-03-26T17:12:34.693Z,58.13
2023-03-26T17:15:21.223Z,57.79
2023-03-26T17:18:19.655Z,58.10
2023-03-26T17:21:15.728Z,58.58
2023-03-26T17:24:16.213Z,58.89
2023-03-26T17:27:22.590Z,58.74
2023-03-26T17:29:52.570Z,59.45
2023-03-26T17:32:20.070Z,59.36
2023-03-26T17:35:01.276Z,59.91
2023-03-26T17:37:35.830Z,59.84
2023-03-26T17:40:02.801Z,60.17
2023-03-26T17:42:31.839Z,60.72
2023-03-26T17:45:02.549Z,60.36
2023-03-26T17:47:39.685Z,60.63
2023-03-26T17:50:21.860Z,61.82
2023-03-26T17:53:03.507Z,61.96
2023-03-26T17:55:35.016Z,61.24
2023-03-26T17:58:07.594Z,61.51
2023-03-26T18:00:43.576Z,61.84
2023-03-26T18:03:36.969Z,61.47
2023-03-26T18:06:14.156Z,61.87
2023-03-26T18:09:06.365Z,62.26
2023-03-26T18:12:00.097Z,62.29
2023-03-26T18:14:49.137Z,62.00
2023-03-26T18:17:16.328Z,62.30
2023-03-26T18:20:06.913Z,62.03
2023-03-26T18:22:34.070Z,62.07
2023-03-26T18:25:02.571Z,61.94
2023-03-26T18:27:37.132Z,62.20
2023-03-26T18:30:16.145Z,62.03
2023-03-26T18:33:00.631Z,61.68
2023-03-26T18:35:44.556Z,61.91
2023-03-26T18:38:18.634Z,62.15
2023-03-26T18:41:04.506Z,61.49
2023-03-26T18:43:35.512Z,62.12
2023-03-26T18:46:14.034Z,61.00
2023-03-26T18:48:41.417Z,61.61
2023-03-26T18:51:08.490Z,61.45
2023-03-26T18:53:51.105Z,61.52
2023-03-26T18:56:20.819Z,61.05
2023-03-26T18:58:52.059Z,61.53
2023-03-26T19:01:25.989Z,61.86
2023-03-26T19:03:54.415Z,60.88
2023-03-26T19:06:23.051Z,61.68
2023-03-26T19:08:50.776Z,62.05
2023-03-26T19:11:18.555Z,61.95
2023-03-26T19:13:58.348Z,62.10
2023-03-26T19:16:28.813Z,62.38
2023-03-26T19:19:00.176Z,62.38
2023-03-26T19:21:27.295Z,62.64
2023-03-26T19:23:55.343Z,63.33
2023-03-26T19:26:22.721Z,63.25
2023-03-26T19:28:54.401Z,62.70
2023-03-26T19:31:28.330Z,64.17
2023-03-26T19:34:01.034Z,63.70
2023-03-26T19:36:30.794Z,64.47
2023-03-26T19:39:00.383Z,64.59
2023-03-26T19:41:34.141Z,64.44
2023-03-26T19:44:05.481Z,64.19
2023-03-26T19:46:53.646Z,64.31
2023-03-26T19:49:30.930Z,64.78
2023-03-26T19:52:28.201Z,65.91
2023-03-26T19:54:59.835Z,66.16
2023-03-26T19:57:32.193Z,66.51
2023-03-26T19:59:59.789Z,66.52
2023-03-26T20:02:27.434Z,66.35
2023-03-26T20:04:54.644Z,66.33
2023-03-26T20:07:35.399Z,66.18
2023-03-26T20:10:05.044Z,66.62
2023-03-26T20:12:31.947Z,66.81
2023-03-26T20:14:59.002Z,66.69
2023-03-26T20:17:25.903Z,66.33
2023-03-26T20:19:52.990Z,66.14
2023-03-26T20:22:20.115Z,66.97
2023-03-26T20:24:47.880Z,67.24
2023-03-26T20:27:14.975Z,66.84
2023-03-26T20:29:42.558Z,67.25
2023-03-26T20:32:27.152Z,67.19
2023-03-26T20:34:54.569Z,67.56
2023-03-26T20:37:21.626Z,67.17
2023-03-26T20:39:48.635Z,67.42
2023-03-26T20:42:16.525Z,67.49
2023-03-26T20:44:43.509Z,67.25
2023-03-26T20:47:11.179Z,67.28
2023-03-26T20:49:38.175Z,66.82
2023-03-26T20:52:05.232Z,67.21
2023-03-26T20:54:32.220Z,67.20
2023-03-26T20:56:59.246Z,66.92
2023-03-26T20:59:27.600Z,67.32
2023-03-26T21:01:57.131Z,67.34
2023-03-26T21:04:24.934Z,66.95
2023-03-26T21:06:55.344Z,67.16
2023-03-26T21:09:29.365Z,67.37
2023-03-26T21:12:22.041Z,66.47
2023-03-26T21:14:49.393Z,66.80
2023-03-26T21:17:19.612Z,67.02
2023-03-26T21:19:47.316Z,67.10
2023-03-26T21:22:30.955Z,67.82
2023-03-26T21:25:42.449Z,67.17
2023-03-26T21:28:28.692Z,67.00
2023-03-26T21:30:59.631Z,68.09
2023-03-26T21:33:27.773Z,67.73
2023-03-26T21:35:55.210Z,67.29
2023-03-26T21:38:23.771Z,67.71
2023-03-26T21:40:58.402Z,67.36
2023-03-26T21:43:26.365Z,67.43
2023-03-26T21:45:53.776Z,67.09
2023-03-26T21:48:21.216Z,67.59
2023-03-26T21:50:48.513Z,67.68
2023-03-26T21:53:16.344Z,68.35
2023-03-26T21:55:49.460Z,68.28
2023-03-26T21:58:55.039Z,68.51
2023-03-26T22:01:57.304Z,69.00
2023-03-26T22:04:44.414Z,69.26
2023-03-26T22:07:19.807Z,69.19
2023-03-26T22:09:47.206Z,69.35
2023-03-26T22:12:14.194Z,70.30
2023-03-26T22:14:41.280Z,69.76
2023-03-26T22:17:11.301Z,70.07
2023-03-26T22:19:38.460Z,69.81
2023-03-26T22:22:05.431Z,70.06
2023-03-26T22:24:32.645Z,70.40
2023-03-26T22:26:59.519Z,69.94
2023-03-26T22:29:26.509Z,70.20
2023-03-26T22:31:53.461Z,70.59
2023-03-26T22:34:20.451Z,70.11
2023-03-26T22:36:47.312Z,70.47
2023-03-26T22:39:14.267Z,70.24
2023-03-26T22:41:41.289Z,70.23
2023-03-26T22:44:19.126Z,70.07
2023-03-26T22:46:47.552Z,70.84
2023-03-26T22:49:14.610Z,70.89
2023-03-26T22:51:41.497Z,70.76
2023-03-26T22:54:08.434Z,70.93
2023-03-26T22:56:35.956Z,71.07
2023-03-26T22:59:02.870Z,70.67
2023-03-26T23:03:57.062Z,71.35
2023-03-26T23:06:24.032Z,71.35
2023-03-26T23:08:50.920Z,71.01
2023-03-26T23:11:20.200Z,70.84
2023-03-26T23:13:48.044Z,71.51
2023-03-26T23:16:16.685Z,71.47
2023-03-26T23:18:44.261Z,70.63
2023-03-26T23:21:17.157Z,70.85
2023-03-26T23:23:45.372Z,70.55
2023-03-26T23:26:13.979Z,71.03
2023-03-26T23:28:42.160Z,72.00
2023-03-26T23:31:10.717Z,71.25
2023-03-26T23:33:39.702Z,71.35
2023-03-26T23:36:08.224Z,70.93
2023-03-26T23:38:43.980Z,70.86
2023-03-26T23:41:11.934Z,70.22
2023-03-26T23:43:38.861Z,70.38
2023-03-26T23:46:22.103Z,70.38
2023-03-26T23:48:50.006Z,70.11
2023-03-26T23:51:21.548Z,70.30
2023-03-26T23:53:48.994Z,70.33
2023-03-26T23:56:16.427Z,70.29
2023-03-26T23:58:43.594Z,70.43
